YEK weather

Arviat Airport
Arviat, Nunavut, Canada

Public forecast

Using degrees Celsius for public forecast. Weather courtesy of forecast.io.

METAR (pilot weather report)

Retrieved 2019/05/26 11:00 UTC (22 minutes ago):

CYEK 261100Z AUTO 30012KT 9SM CLR M08/M09 A3012 RMK SLP203

TAF (pilot weather forecast)

Retrieved 2019/05/26 06:51 UTC (5 hours ago):

TAF CYEK 260549Z 2606/2618 30012KT P6SM SKC BECMG 2614/2616 24015KT FEW030 BKN220 RMK FCST BASED ON AUTO OBS. NXT FCST BY 261200Z